Time;durP1;ratioP1;P1;durP2;ratioP2;P2;SDS_P1;SDS_P2;PMS_P1;PMS_P2;Temp;Humidity;BMP_temperature;BMP_pressure;BME280_temperature;BME280_humidity;BME280_pressure;Samples;Min_cycle;Max_cycle;Signal;HPM_P1;HPM_P2
2020/12/18 00:02:26;;;;;;;17.00;9.13;;;8.20;99.90;;;;;;4988278;28;20030;-80
2020/12/18 00:04:52;;;;;;;11.73;7.40;;;8.20;99.90;;;;;;4988072;28;20444;-80
2020/12/18 00:07:19;;;;;;;14.52;8.45;;;8.10;99.90;;;;;;4987615;28;20038;-80
2020/12/18 00:09:45;;;;;;;13.13;7.95;;;8.20;99.90;;;;;;4990729;28;20057;-81
2020/12/18 00:12:11;;;;;;;17.48;8.70;;;8.20;99.90;;;;;;4988637;28;20504;-80
2020/12/18 00:14:37;;;;;;;14.43;8.52;;;8.20;99.90;;;;;;4987671;28;20126;-81
2020/12/18 00:17:04;;;;;;;13.15;8.55;;;8.20;99.90;;;;;;4988454;28;20113;-80
2020/12/18 00:19:30;;;;;;;13.55;8.60;;;8.20;99.90;;;;;;4987585;28;20088;-80
2020/12/18 00:21:56;;;;;;;15.73;8.90;;;8.20;99.90;;;;;;4988263;28;20034;-80
2020/12/18 00:24:22;;;;;;;15.68;8.23;;;8.20;99.90;;;;;;4983964;28;20453;-81
2020/12/18 00:26:47;;;;;;;15.88;8.55;;;8.10;99.90;;;;;;4980927;28;20034;-81
2020/12/18 00:29:13;;;;;;;13.38;7.97;;;8.10;99.90;;;;;;4993666;28;20215;-80
2020/12/18 00:31:39;;;;;;;16.35;8.65;;;8.10;99.90;;;;;;5003618;28;20378;-80
2020/12/18 00:34:04;;;;;;;14.05;8.80;;;8.00;99.90;;;;;;4986849;28;20054;-80
2020/12/18 00:36:29;;;;;;;13.80;8.10;;;8.10;99.90;;;;;;4983603;28;20118;-80
2020/12/18 00:38:55;;;;;;;16.25;8.25;;;8.00;99.90;;;;;;4987635;28;20481;-80
2020/12/18 00:41:20;;;;;;;13.23;7.90;;;8.00;99.90;;;;;;4986785;28;20042;-80
2020/12/18 00:43:46;;;;;;;14.15;8.63;;;8.00;99.90;;;;;;4988075;28;20050;-80
2020/12/18 00:46:11;;;;;;;14.52;8.45;;;8.00;99.90;;;;;;4987652;28;20501;-80
2020/12/18 00:48:37;;;;;;;12.13;8.27;;;8.10;99.90;;;;;;4987926;28;20050;-80
2020/12/18 00:51:02;;;;;;;12.50;7.75;;;8.10;99.90;;;;;;4987714;28;20405;-80
2020/12/18 00:53:28;;;;;;;16.02;8.70;;;8.10;99.90;;;;;;4988307;28;20034;-80
2020/12/18 00:55:54;;;;;;;13.85;8.18;;;8.10;99.90;;;;;;4988088;28;20027;-80
2020/12/18 00:58:19;;;;;;;14.30;8.20;;;8.00;99.90;;;;;;4986213;28;20441;-80
2020/12/18 01:00:45;;;;;;;14.68;8.48;;;8.00;99.90;;;;;;4986204;28;20429;-80
2020/12/18 01:03:10;;;;;;;13.30;7.88;;;8.00;99.90;;;;;;4987592;28;20288;-80
2020/12/18 01:05:36;;;;;;;12.85;8.30;;;7.90;99.90;;;;;;4987587;28;20062;-80
2020/12/18 01:08:02;;;;;;;13.85;7.65;;;8.00;99.90;;;;;;4987727;28;20030;-80
2020/12/18 01:10:27;;;;;;;14.55;7.90;;;8.00;99.90;;;;;;4986261;28;20038;-80
2020/12/18 01:12:52;;;;;;;14.75;8.43;;;8.00;99.90;;;;;;4982841;28;20026;-80
2020/12/18 01:15:18;;;;;;;16.30;8.68;;;8.00;99.90;;;;;;4986416;28;20029;-80
2020/12/18 01:17:43;;;;;;;15.10;8.20;;;8.00;99.90;;;;;;4983497;28;20121;-80
2020/12/18 01:20:09;;;;;;;15.35;8.10;;;8.00;99.90;;;;;;4987509;28;20109;-80
2020/12/18 01:22:34;;;;;;;15.02;9.10;;;7.90;99.90;;;;;;4987177;28;20486;-80
2020/12/18 01:25:00;;;;;;;15.43;9.15;;;7.90;99.90;;;;;;4984906;28;20502;-80
2020/12/18 01:27:26;;;;;;;17.38;9.55;;;7.90;99.90;;;;;;4985851;28;20481;-80
2020/12/18 01:29:51;;;;;;;14.10;8.52;;;7.90;99.90;;;;;;4987945;28;20022;-80
2020/12/18 01:32:17;;;;;;;15.68;9.10;;;7.80;99.90;;;;;;4991422;28;20505;-80
2020/12/18 01:34:44;;;;;;;15.02;9.07;;;7.70;99.90;;;;;;4991183;28;20102;-80
2020/12/18 01:37:10;;;;;;;15.88;9.55;;;7.80;99.90;;;;;;4989192;28;20042;-80
2020/12/18 01:39:36;;;;;;;15.60;8.63;;;7.70;99.90;;;;;;4990099;28;20019;-80
2020/12/18 01:42:02;;;;;;;15.75;8.70;;;7.70;99.90;;;;;;4991561;28;20511;-80
2020/12/18 01:44:27;;;;;;;20.23;9.88;;;7.70;99.90;;;;;;4991868;28;20030;-80
2020/12/18 01:46:53;;;;;;;15.70;9.45;;;7.70;99.90;;;;;;4990995;28;20030;-80
2020/12/18 01:49:19;;;;;;;19.60;10.25;;;7.70;99.90;;;;;;4989597;28;20039;-80
2020/12/18 01:51:45;;;;;;;18.48;9.85;;;7.70;99.90;;;;;;4991701;28;20037;-80
2020/12/18 01:54:10;;;;;;;16.30;8.80;;;7.60;99.90;;;;;;4990729;28;20078;-80
2020/12/18 01:56:36;;;;;;;19.27;8.15;;;7.60;99.90;;;;;;4989905;28;20030;-80
2020/12/18 01:59:03;;;;;;;16.15;8.95;;;7.50;99.90;;;;;;4990019;28;20034;-80
2020/12/18 02:01:28;;;;;;;15.50;9.55;;;7.60;99.90;;;;;;4990367;28;20027;-80
2020/12/18 02:03:55;;;;;;;16.67;9.18;;;7.70;99.90;;;;;;4989872;28;20046;-80
2020/12/18 02:06:25;;;;;;;17.17;9.32;;;7.70;99.90;;;;;;4981013;28;20053;-80
2020/12/18 02:08:51;;;;;;;14.32;8.93;;;7.70;99.90;;;;;;4987280;28;20045;-80
2020/12/18 02:11:21;;;;;;;19.67;9.65;;;7.70;99.90;;;;;;4982605;28;20485;-80
2020/12/18 02:13:53;;;;;;;18.55;8.85;;;7.70;99.90;;;;;;4989600;28;20405;-80
2020/12/18 02:16:23;;;;;;;15.18;9.20;;;7.70;99.90;;;;;;4989541;28;20465;-80
2020/12/18 02:18:48;;;;;;;16.30;8.55;;;7.60;99.90;;;;;;4989172;28;20393;-80
2020/12/18 02:21:14;;;;;;;16.85;9.63;;;7.60;99.90;;;;;;4990677;28;20034;-80
2020/12/18 02:23:48;;;;;;;15.73;8.45;;;7.50;99.90;;;;;;4989218;28;20500;-79
2020/12/18 02:26:15;;;;;;;16.92;8.70;;;7.40;99.90;;;;;;4990665;28;20072;-80
2020/12/18 02:28:42;;;;;;;12.63;8.48;;;7.40;99.90;;;;;;4988499;28;20046;-80
2020/12/18 02:31:08;;;;;;;16.23;9.35;;;7.40;99.90;;;;;;4984791;28;20034;-80
2020/12/18 02:33:34;;;;;;;15.15;9.13;;;7.40;99.90;;;;;;4990824;28;20039;-80
2020/12/18 02:36:01;;;;;;;18.00;9.48;;;7.50;99.90;;;;;;4989228;28;20034;-80
2020/12/18 02:38:27;;;;;;;17.65;9.10;;;7.40;99.90;;;;;;4990018;28;20054;-80
2020/12/18 02:40:56;;;;;;;13.40;8.98;;;7.50;99.90;;;;;;4995632;28;20031;-80
2020/12/18 02:43:22;;;;;;;18.58;9.30;;;7.40;99.90;;;;;;4988458;28;20027;-80
2020/12/18 02:45:49;;;;;;;16.48;8.95;;;7.50;99.90;;;;;;4988434;28;20026;-81
2020/12/18 02:48:15;;;;;;;12.93;8.48;;;7.50;99.90;;;;;;4989833;28;20026;-80
2020/12/18 02:50:41;;;;;;;15.68;9.00;;;7.30;99.90;;;;;;4988913;28;20242;-80
2020/12/18 02:53:14;;;;;;;14.88;9.23;;;7.40;99.90;;;;;;4990130;28;20157;-80
2020/12/18 02:55:41;;;;;;;15.80;9.43;;;7.30;99.90;;;;;;4987689;28;20441;-80
2020/12/18 02:58:07;;;;;;;17.58;9.35;;;7.30;99.90;;;;;;4988109;28;20030;-80
2020/12/18 03:00:33;;;;;;;17.48;9.18;;;7.30;99.90;;;;;;4989870;28;20030;-80
2020/12/18 03:02:58;;;;;;;16.30;9.68;;;7.30;99.90;;;;;;4988586;28;20080;-80
2020/12/18 03:05:24;;;;;;;15.38;9.25;;;7.20;99.90;;;;;;4989794;28;20381;-80
2020/12/18 03:07:49;;;;;;;15.30;8.73;;;7.20;99.90;;;;;;4988020;28;20045;-80
2020/12/18 03:10:15;;;;;;;13.88;8.38;;;7.00;99.90;;;;;;4990646;28;20022;-80
2020/12/18 03:12:40;;;;;;;13.73;8.65;;;7.10;99.90;;;;;;4988526;28;20049;-80
2020/12/18 03:15:05;;;;;;;18.27;8.93;;;7.10;99.90;;;;;;4988671;28;20026;-81
2020/12/18 03:17:31;;;;;;;15.02;9.10;;;7.10;99.90;;;;;;4988776;28;20482;-80
2020/12/18 03:19:56;;;;;;;15.80;8.93;;;7.20;99.90;;;;;;4988665;28;20034;-80
2020/12/18 03:22:22;;;;;;;14.50;9.05;;;7.10;99.90;;;;;;4990380;28;20022;-80
2020/12/18 03:24:47;;;;;;;15.88;8.88;;;7.10;99.90;;;;;;4987536;28;20038;-80
2020/12/18 03:27:13;;;;;;;15.65;8.95;;;7.20;99.90;;;;;;4988632;28;20034;-80
2020/12/18 03:29:38;;;;;;;13.40;8.82;;;7.20;99.90;;;;;;4988420;28;20026;-80
2020/12/18 03:32:04;;;;;;;19.45;9.77;;;7.20;99.90;;;;;;4988952;28;20069;-80
2020/12/18 03:34:29;;;;;;;17.77;9.50;;;7.10;99.90;;;;;;4988359;28;20097;-81
2020/12/18 03:36:54;;;;;;;17.25;8.95;;;7.20;99.90;;;;;;4987175;28;20022;-80
2020/12/18 03:39:20;;;;;;;18.90;9.70;;;7.20;99.90;;;;;;4989692;28;20041;-80
2020/12/18 03:41:45;;;;;;;16.17;8.75;;;7.20;99.90;;;;;;4994211;28;20026;-80
2020/12/18 03:44:11;;;;;;;15.70;9.23;;;7.00;99.90;;;;;;4989830;28;20393;-80
2020/12/18 03:46:36;;;;;;;12.32;8.15;;;6.80;99.90;;;;;;4989038;28;20030;-80
2020/12/18 03:49:02;;;;;;;13.90;8.50;;;6.80;99.90;;;;;;4988297;28;20030;-80
2020/12/18 03:51:27;;;;;;;16.42;9.90;;;6.60;99.90;;;;;;4988925;28;20615;-80
2020/12/18 03:53:53;;;;;;;16.25;8.88;;;6.70;99.90;;;;;;4986730;28;20140;-80
2020/12/18 03:56:18;;;;;;;19.23;10.30;;;6.70;99.90;;;;;;4985622;28;20109;-80
2020/12/18 03:58:44;;;;;;;16.70;10.07;;;6.70;99.90;;;;;;4986022;28;20466;-80
2020/12/18 04:01:09;;;;;;;15.98;9.05;;;6.80;99.90;;;;;;4988473;28;20080;-80
2020/12/18 04:03:35;;;;;;;17.73;8.52;;;6.60;99.90;;;;;;4986955;28;20137;-80
2020/12/18 04:06:00;;;;;;;15.23;8.88;;;6.50;99.90;;;;;;4989571;28;20056;-80
2020/12/18 04:08:26;;;;;;;16.63;9.18;;;6.50;99.90;;;;;;4987420;28;20156;-80
2020/12/18 04:10:51;;;;;;;18.98;9.98;;;6.60;99.90;;;;;;4989474;28;20026;-80
2020/12/18 04:13:16;;;;;;;15.30;9.10;;;6.50;99.90;;;;;;4987165;28;20035;-80
2020/12/18 04:15:42;;;;;;;19.02;10.25;;;6.70;99.90;;;;;;4987235;28;20034;-80
2020/12/18 04:18:09;;;;;;;16.85;10.20;;;6.80;99.90;;;;;;4988901;28;20134;-80
2020/12/18 04:20:35;;;;;;;17.33;9.25;;;6.70;99.90;;;;;;4996590;28;20141;-80
2020/12/18 04:23:00;;;;;;;16.80;8.80;;;6.60;99.90;;;;;;4987625;28;20117;-80
2020/12/18 04:25:26;;;;;;;16.23;8.68;;;6.60;99.90;;;;;;4988954;28;20026;-80
2020/12/18 04:27:51;;;;;;;15.77;9.65;;;6.60;99.90;;;;;;4986623;28;20029;-80
2020/12/18 04:30:17;;;;;;;19.95;10.40;;;6.70;99.90;;;;;;4988595;28;20234;-80
2020/12/18 04:32:42;;;;;;;17.75;10.25;;;6.70;99.90;;;;;;4988468;28;20037;-80
2020/12/18 04:35:08;;;;;;;19.05;9.38;;;6.60;99.90;;;;;;4988349;28;20116;-80
2020/12/18 04:37:33;;;;;;;16.60;9.05;;;6.70;99.90;;;;;;4987285;28;20088;-80
2020/12/18 04:39:59;;;;;;;17.92;10.05;;;6.70;99.90;;;;;;4994347;28;20030;-81
2020/12/18 04:42:25;;;;;;;19.25;9.00;;;6.80;99.90;;;;;;4987890;28;20027;-80
2020/12/18 04:44:50;;;;;;;16.77;9.02;;;6.70;99.90;;;;;;4986502;28;20381;-80
2020/12/18 04:47:17;;;;;;;17.10;9.20;;;6.60;99.90;;;;;;4986601;28;20057;-81
2020/12/18 04:49:42;;;;;;;19.88;9.50;;;6.60;99.90;;;;;;4987886;28;20037;-80
2020/12/18 04:52:13;;;;;;;17.33;9.15;;;6.50;99.90;;;;;;4986963;28;20120;-80
2020/12/18 04:54:42;;;;;;;15.00;8.70;;;6.50;99.90;;;;;;4987539;28;20057;-80
2020/12/18 04:57:08;;;;;;;15.10;8.88;;;6.50;99.90;;;;;;4987691;28;20489;-80
2020/12/18 04:59:35;;;;;;;12.23;8.40;;;6.40;99.90;;;;;;4982307;28;20316;-80
2020/12/18 05:02:00;;;;;;;15.02;8.48;;;6.50;99.90;;;;;;4982716;28;20035;-80
2020/12/18 05:04:29;;;;;;;16.05;9.40;;;6.50;99.90;;;;;;4987036;28;20092;-80
2020/12/18 05:06:55;;;;;;;15.18;8.93;;;6.50;99.90;;;;;;4990316;28;20381;-80
2020/12/18 05:09:24;;;;;;;15.10;9.10;;;6.50;99.90;;;;;;4992199;28;20030;-80
2020/12/18 05:11:51;;;;;;;19.35;11.10;;;6.50;99.90;;;;;;4990116;28;20117;-80
2020/12/18 05:14:17;;;;;;;14.25;9.00;;;6.50;99.90;;;;;;4991754;28;20038;-80
2020/12/18 05:16:42;;;;;;;15.10;9.18;;;6.40;99.90;;;;;;4990724;28;20371;-80
2020/12/18 05:19:08;;;;;;;18.40;10.57;;;6.50;99.90;;;;;;4991755;28;20042;-80
2020/12/18 05:21:35;;;;;;;16.02;9.07;;;6.50;99.90;;;;;;4991796;28;20050;-80
2020/12/18 05:24:00;;;;;;;18.42;10.30;;;6.50;99.90;;;;;;4991813;28;20050;-80
2020/12/18 05:26:28;;;;;;;21.85;11.35;;;6.50;99.90;;;;;;4989181;28;20049;-80
2020/12/18 05:29:03;;;;;;;18.85;10.85;;;6.50;99.90;;;;;;4990431;28;20392;-79
2020/12/18 05:31:29;;;;;;;22.10;11.88;;;6.60;99.90;;;;;;4991140;28;20110;-79
2020/12/18 05:33:55;;;;;;;19.05;10.60;;;6.60;99.90;;;;;;4992494;28;20022;-80
2020/12/18 05:36:25;;;;;;;21.60;11.20;;;6.70;99.90;;;;;;4992211;28;20041;-80
2020/12/18 05:38:51;;;;;;;17.77;10.30;;;6.70;99.90;;;;;;4990680;28;20030;-80
2020/12/18 05:41:25;;;;;;;20.02;11.63;;;6.80;99.90;;;;;;4998531;28;20030;-80
2020/12/18 05:43:51;;;;;;;19.65;11.45;;;6.80;99.90;;;;;;4989924;28;20133;-80
2020/12/18 05:46:23;;;;;;;19.40;10.40;;;6.80;99.90;;;;;;4990591;28;20027;-80
2020/12/18 05:48:59;;;;;;;21.33;10.57;;;6.90;99.90;;;;;;4991302;28;20037;-80
2020/12/18 05:51:30;;;;;;;14.90;9.85;;;6.90;99.90;;;;;;4989471;28;20026;-80
2020/12/18 05:54:16;;;;;;;17.63;10.02;;;6.90;99.90;;;;;;4991852;28;20116;-80
2020/12/18 05:56:44;;;;;;;18.83;10.18;;;7.00;99.90;;;;;;4988631;28;20389;-80
2020/12/18 05:59:12;;;;;;;17.23;9.40;;;7.00;99.90;;;;;;4987327;28;20034;-80
2020/12/18 06:01:42;;;;;;;17.77;10.57;;;7.00;99.90;;;;;;4990024;28;20121;-80
2020/12/18 06:04:19;;;;;;;18.73;9.90;;;7.00;99.90;;;;;;4991185;28;20045;-80
2020/12/18 06:06:55;;;;;;;18.65;9.27;;;7.00;99.90;;;;;;4988398;28;20023;-80
2020/12/18 06:09:26;;;;;;;24.35;10.30;;;7.00;99.90;;;;;;4990830;28;20030;-80
2020/12/18 06:11:52;;;;;;;17.90;9.65;;;7.00;99.90;;;;;;4988072;28;20433;-80
2020/12/18 06:14:19;;;;;;;20.65;9.75;;;7.00;99.90;;;;;;4988419;28;20437;-80
2020/12/18 06:16:45;;;;;;;18.60;10.48;;;7.00;99.90;;;;;;4987948;28;20102;-80
2020/12/18 06:19:14;;;;;;;19.38;9.73;;;7.10;99.90;;;;;;4991144;28;20121;-80
2020/12/18 06:21:40;;;;;;;20.42;10.23;;;7.10;99.90;;;;;;4989660;28;20038;-80
2020/12/18 06:24:09;;;;;;;16.92;9.68;;;7.10;99.90;;;;;;4989360;28;20477;-80
2020/12/18 06:26:35;;;;;;;21.70;9.63;;;7.00;99.90;;;;;;4988836;28;20027;-78
2020/12/18 06:29:05;;;;;;;22.23;10.05;;;7.10;99.90;;;;;;4989050;28;20539;-78
2020/12/18 06:31:32;;;;;;;18.13;10.50;;;7.10;99.90;;;;;;4990102;28;20161;-78
2020/12/18 06:34:03;;;;;;;19.33;10.65;;;7.10;99.90;;;;;;4990683;28;20022;-78
2020/12/18 06:36:44;;;;;;;18.52;10.10;;;7.00;99.90;;;;;;4988852;28;20140;-78
2020/12/18 06:39:35;;;;;;;18.90;11.23;;;7.00;99.90;;;;;;4989010;28;20168;-78
2020/12/18 06:42:23;;;;;;;24.13;11.05;;;6.90;99.90;;;;;;4980084;28;20458;-78
2020/12/18 06:44:53;;;;;;;20.00;10.68;;;7.00;99.90;;;;;;4988230;28;20064;-79
2020/12/18 06:47:23;;;;;;;18.65;9.98;;;6.90;99.90;;;;;;4989928;28;20355;-78
2020/12/18 06:49:54;;;;;;;15.63;9.50;;;6.80;99.90;;;;;;4990645;28;20113;-78
2020/12/18 06:52:46;;;;;;;22.10;11.25;;;6.60;99.90;;;;;;4989589;28;20030;-78
2020/12/18 06:55:26;;;;;;;22.13;11.05;;;6.60;99.90;;;;;;4989013;28;20042;-78
2020/12/18 06:58:08;;;;;;;21.15;12.40;;;6.60;99.90;;;;;;4988717;28;20169;-78
2020/12/18 07:00:56;;;;;;;23.48;11.57;;;6.60;99.90;;;;;;4988323;28;20048;-78
2020/12/18 07:03:42;;;;;;;24.10;11.63;;;6.50;99.90;;;;;;4988433;28;20033;-79
2020/12/18 07:06:11;;;;;;;23.90;11.48;;;6.60;99.90;;;;;;4988866;28;20026;-78
2020/12/18 07:08:40;;;;;;;25.30;11.85;;;6.60;99.90;;;;;;4988600;28;20420;-78
2020/12/18 07:11:11;;;;;;;22.88;12.77;;;6.40;99.90;;;;;;4988979;28;20674;-79
2020/12/18 07:13:40;;;;;;;18.08;10.93;;;6.50;99.90;;;;;;4988129;28;20030;-78
2020/12/18 07:16:19;;;;;;;20.67;10.70;;;6.50;99.90;;;;;;4988108;28;20085;-79
2020/12/18 07:18:45;;;;;;;23.23;11.43;;;6.40;99.90;;;;;;4989626;28;20034;-78
2020/12/18 07:21:15;;;;;;;22.75;11.20;;;6.40;99.90;;;;;;4989340;28;20536;-78
2020/12/18 07:23:42;;;;;;;21.35;10.68;;;6.50;99.90;;;;;;4989470;28;20431;-78
2020/12/18 07:26:09;;;;;;;20.02;11.43;;;6.50;99.90;;;;;;4988801;28;20023;-79
2020/12/18 07:28:37;;;;;;;21.80;11.43;;;6.50;99.90;;;;;;4986022;28;20456;-78
2020/12/18 07:31:04;;;;;;;16.95;10.50;;;6.50;99.90;;;;;;4992018;28;20113;-78
2020/12/18 07:33:29;;;;;;;22.65;11.57;;;6.40;99.90;;;;;;4987526;28;20418;-78
2020/12/18 07:35:56;;;;;;;20.65;11.70;;;6.50;99.90;;;;;;4989910;28;20113;-78
2020/12/18 07:38:32;;;;;;;17.45;10.55;;;6.40;99.90;;;;;;4989002;28;20456;-80
2020/12/18 07:41:01;;;;;;;22.75;11.98;;;6.40;99.90;;;;;;5001546;28;20060;-80
2020/12/18 07:43:29;;;;;;;18.85;11.43;;;6.40;99.90;;;;;;4986637;28;20026;-83
2020/12/18 07:45:57;;;;;;;21.90;11.32;;;6.40;99.90;;;;;;4989730;28;20108;-78
2020/12/18 07:48:29;;;;;;;20.83;11.20;;;6.40;99.90;;;;;;4988147;28;20482;-79
2020/12/18 07:51:00;;;;;;;18.45;10.68;;;6.40;99.90;;;;;;4988821;28;20026;-84
2020/12/18 07:53:27;;;;;;;18.08;9.75;;;6.40;99.90;;;;;;4988085;28;20478;-80
2020/12/18 07:56:00;;;;;;;16.50;10.02;;;6.20;99.90;;;;;;4987080;28;20033;-77
2020/12/18 07:58:26;;;;;;;19.85;11.10;;;6.20;99.90;;;;;;4986909;28;20050;-76
2020/12/18 08:01:11;;;;;;;20.65;10.55;;;6.10;99.90;;;;;;4984761;28;20501;-76
2020/12/18 08:03:38;;;;;;;26.67;12.45;;;6.10;99.90;;;;;;4986834;28;20054;-77
2020/12/18 08:06:05;;;;;;;21.38;11.52;;;6.20;99.90;;;;;;4986635;28;20113;-77
2020/12/18 08:08:37;;;;;;;19.77;11.57;;;6.20;99.90;;;;;;4988560;28;20026;-77
2020/12/18 08:11:03;;;;;;;28.38;15.32;;;6.20;99.90;;;;;;4987893;28;20496;-76
2020/12/18 08:13:31;;;;;;;19.80;10.95;;;6.20;99.90;;;;;;4987236;28;20034;-76
2020/12/18 08:16:11;;;;;;;24.27;12.43;;;6.30;99.90;;;;;;4989448;28;20447;-76
2020/12/18 08:18:37;;;;;;;23.00;12.27;;;6.30;99.90;;;;;;4986893;28;20150;-76
2020/12/18 08:21:04;;;;;;;24.27;11.82;;;6.50;99.90;;;;;;4992382;28;20089;-77
2020/12/18 08:23:34;;;;;;;23.67;11.68;;;6.50;99.90;;;;;;4987304;28;20053;-76
2020/12/18 08:26:01;;;;;;;23.17;11.93;;;6.60;99.90;;;;;;4987771;28;20385;-77
2020/12/18 08:28:28;;;;;;;21.80;11.63;;;6.70;99.90;;;;;;4988630;28;20030;-77
2020/12/18 08:30:55;;;;;;;22.10;11.80;;;6.80;99.90;;;;;;4986986;28;20041;-78
2020/12/18 08:33:21;;;;;;;28.92;12.68;;;7.00;99.90;;;;;;4987831;28;20038;-75
2020/12/18 08:35:47;;;;;;;21.30;11.63;;;7.00;99.90;;;;;;4986635;28;20026;-77
2020/12/18 08:38:13;;;;;;;23.98;11.95;;;7.10;99.90;;;;;;4991069;28;20049;-77
2020/12/18 08:40:42;;;;;;;23.65;11.85;;;7.00;99.90;;;;;;4988222;28;20027;-76
2020/12/18 08:43:10;;;;;;;21.05;12.25;;;7.10;99.90;;;;;;4992437;28;20031;-76
2020/12/18 08:45:42;;;;;;;20.90;11.93;;;7.10;99.90;;;;;;4987407;28;20033;-77
2020/12/18 08:48:08;;;;;;;22.15;12.75;;;7.10;99.90;;;;;;4988370;28;20516;-77
2020/12/18 08:50:34;;;;;;;24.02;12.48;;;7.10;99.90;;;;;;4991155;28;20057;-77
2020/12/18 08:53:09;;;;;;;23.75;13.68;;;7.20;99.90;;;;;;4977680;28;20066;-76
2020/12/18 08:55:38;;;;;;;23.85;12.85;;;7.20;99.90;;;;;;4980599;28;20034;-77
2020/12/18 08:58:08;;;;;;;25.30;13.23;;;7.10;99.90;;;;;;4983324;28;20410;-77
2020/12/18 09:00:34;;;;;;;22.88;12.57;;;7.10;99.90;;;;;;4981146;28;20632;-78
2020/12/18 09:03:01;;;;;;;20.67;11.85;;;7.20;99.90;;;;;;4976782;28;20106;-75
2020/12/18 09:05:31;;;;;;;27.70;12.80;;;7.20;99.90;;;;;;4978670;28;20050;-77
2020/12/18 09:07:59;;;;;;;22.92;13.30;;;7.10;99.90;;;;;;4982327;28;20061;-75
2020/12/18 09:10:44;;;;;;;22.60;12.25;;;7.20;99.90;;;;;;4985096;28;20037;-75
2020/12/18 09:13:23;;;;;;;28.60;13.15;;;7.10;99.90;;;;;;4988779;28;20357;-77
2020/12/18 09:16:06;;;;;;;22.45;12.63;;;7.10;99.90;;;;;;4987053;28;20054;-76
2020/12/18 09:18:36;;;;;;;26.17;14.10;;;7.20;99.90;;;;;;4988673;28;20027;-80
2020/12/18 09:21:16;;;;;;;24.88;13.25;;;7.30;99.90;;;;;;4975654;28;20042;-78
2020/12/18 09:23:43;;;;;;;24.48;13.73;;;7.40;99.90;;;;;;4996010;28;20345;-79
2020/12/18 09:26:09;;;;;;;26.85;13.55;;;7.40;99.90;;;;;;4995049;28;20026;-79
2020/12/18 09:28:39;;;;;;;23.35;12.95;;;7.50;99.90;;;;;;4999484;28;20034;-79
2020/12/18 09:31:07;;;;;;;23.30;11.57;;;7.50;99.90;;;;;;4996957;28;20037;-79
2020/12/18 09:33:37;;;;;;;22.42;12.80;;;7.60;99.90;;;;;;4998251;28;20034;-79
2020/12/18 09:36:06;;;;;;;26.42;13.52;;;7.70;99.90;;;;;;4996714;28;20029;-82
2020/12/18 09:38:32;;;;;;;21.17;12.50;;;7.80;99.90;;;;;;4993179;28;20153;-79
2020/12/18 09:41:00;;;;;;;24.27;13.43;;;7.80;99.90;;;;;;4987655;28;20031;-79
2020/12/18 09:43:26;;;;;;;20.83;12.30;;;7.90;99.90;;;;;;4986925;28;20027;-79
2020/12/18 09:45:53;;;;;;;20.63;11.88;;;7.80;99.90;;;;;;4990676;28;20034;-79
2020/12/18 09:48:19;;;;;;;26.10;12.50;;;7.80;99.90;;;;;;4990319;28;20038;-79
2020/12/18 09:50:44;;;;;;;20.98;12.27;;;8.00;99.90;;;;;;4990652;28;20028;-79
2020/12/18 09:53:10;;;;;;;23.02;12.57;;;8.00;99.90;;;;;;4995485;28;20054;-79
2020/12/18 09:55:36;;;;;;;27.42;13.98;;;8.00;99.90;;;;;;4995197;28;20018;-80
2020/12/18 09:58:03;;;;;;;23.65;13.57;;;8.00;99.90;;;;;;4995824;28;20066;-79
2020/12/18 10:00:29;;;;;;;26.35;12.85;;;8.00;99.90;;;;;;4991748;28;20174;-80
2020/12/18 10:02:55;;;;;;;22.17;12.27;;;8.10;99.90;;;;;;4994266;28;20484;-80
2020/12/18 10:05:21;;;;;;;21.77;12.10;;;8.20;99.90;;;;;;4994767;28;20054;-79
2020/12/18 10:07:46;;;;;;;25.27;12.57;;;8.20;99.90;;;;;;4990734;28;20734;-78
2020/12/18 10:10:12;;;;;;;27.33;12.50;;;8.20;99.90;;;;;;4993688;28;20041;-79
2020/12/18 10:12:37;;;;;;;25.48;12.68;;;8.20;99.90;;;;;;4988596;28;20030;-78
2020/12/18 10:15:04;;;;;;;20.63;12.48;;;8.10;99.90;;;;;;4988191;28;20030;-78
2020/12/18 10:17:29;;;;;;;20.85;12.82;;;8.10;99.90;;;;;;4992763;28;20092;-79
2020/12/18 10:19:55;;;;;;;22.38;12.20;;;8.20;99.90;;;;;;4995156;28;20026;-79
2020/12/18 10:22:20;;;;;;;21.25;12.32;;;8.20;99.90;;;;;;4992042;28;20679;-79
2020/12/18 10:24:45;;;;;;;21.10;11.82;;;8.30;99.90;;;;;;4996737;28;20037;-81
2020/12/18 10:27:12;;;;;;;19.95;11.45;;;8.40;99.90;;;;;;4991295;28;20476;-77
2020/12/18 10:29:38;;;;;;;18.25;11.50;;;8.50;99.90;;;;;;4993266;28;20439;-78
2020/12/18 10:32:04;;;;;;;17.63;11.68;;;8.60;99.90;;;;;;4990360;28;20041;-77
2020/12/18 10:34:29;;;;;;;19.13;11.20;;;8.60;99.90;;;;;;4994438;28;20441;-77
2020/12/18 10:36:55;;;;;;;22.08;11.70;;;8.60;99.90;;;;;;4987265;28;21339;-77
2020/12/18 10:39:23;;;;;;;23.80;11.60;;;8.80;99.90;;;;;;4992480;28;20050;-75
2020/12/18 10:41:52;;;;;;;19.33;10.88;;;8.90;99.90;;;;;;4996143;28;20492;-75
2020/12/18 10:44:19;;;;;;;19.67;11.32;;;9.10;99.90;;;;;;4994285;28;20038;-87
2020/12/18 10:46:45;;;;;;;16.92;10.90;;;9.20;99.90;;;;;;4996116;28;20026;-81
2020/12/18 10:49:12;;;;;;;18.58;11.43;;;9.20;99.90;;;;;;4993005;28;20030;-81
2020/12/18 10:51:39;;;;;;;21.50;11.07;;;9.30;99.90;;;;;;4989911;28;20059;-81
2020/12/18 10:54:04;;;;;;;17.52;11.13;;;9.40;99.90;;;;;;4993362;28;20037;-82
2020/12/18 10:56:30;;;;;;;19.75;10.85;;;9.50;99.90;;;;;;4988288;28;20044;-81
2020/12/18 10:58:55;;;;;;;18.35;10.80;;;9.70;99.90;;;;;;4991100;28;20030;-76
2020/12/18 11:01:22;;;;;;;24.90;11.55;;;9.70;99.90;;;;;;4994816;28;20049;-74
2020/12/18 11:03:48;;;;;;;20.60;11.43;;;9.90;99.90;;;;;;4986970;28;20038;-74
2020/12/18 11:06:13;;;;;;;23.02;12.52;;;9.90;99.90;;;;;;4994971;28;20041;-75
2020/12/18 11:08:39;;;;;;;22.63;10.98;;;10.00;99.90;;;;;;4990622;28;20146;-75
2020/12/18 11:11:05;;;;;;;17.20;10.35;;;10.10;99.90;;;;;;4991991;28;20492;-75
2020/12/18 11:13:30;;;;;;;19.00;10.40;;;10.30;99.90;;;;;;4993205;28;20034;-74
2020/12/18 11:15:56;;;;;;;18.30;10.55;;;10.40;99.90;;;;;;4992612;28;20038;-75
2020/12/18 11:18:21;;;;;;;18.88;11.68;;;10.50;99.90;;;;;;4992614;28;20072;-76
2020/12/18 11:20:47;;;;;;;17.02;10.50;;;10.70;99.90;;;;;;4988715;28;20041;-76
2020/12/18 11:23:12;;;;;;;19.70;10.57;;;10.80;99.90;;;;;;4988417;28;21844;-82
2020/12/18 11:25:38;;;;;;;18.50;10.70;;;10.90;99.90;;;;;;4985772;28;20428;-83
2020/12/18 11:28:03;;;;;;;16.35;10.30;;;11.00;99.90;;;;;;4989376;28;20069;-82
2020/12/18 11:30:29;;;;;;;18.67;10.40;;;10.90;99.90;;;;;;4990386;28;20022;-81
2020/12/18 11:32:54;;;;;;;14.73;9.35;;;10.80;99.90;;;;;;4990420;28;20049;-81
2020/12/18 11:35:20;;;;;;;15.75;9.05;;;10.60;99.90;;;;;;4985655;28;20027;-83
2020/12/18 11:37:45;;;;;;;14.10;8.63;;;10.50;99.90;;;;;;4993424;28;20038;-82
2020/12/18 11:40:11;;;;;;;15.77;9.07;;;10.40;99.90;;;;;;4987811;28;20165;-82
2020/12/18 11:42:36;;;;;;;19.13;10.00;;;10.30;99.90;;;;;;4987762;28;20028;-81
2020/12/18 11:45:03;;;;;;;15.13;9.15;;;10.20;99.90;;;;;;4986983;28;20678;-83
2020/12/18 11:47:29;;;;;;;17.10;8.73;;;10.10;99.90;;;;;;4989470;28;20038;-82
2020/12/18 11:49:55;;;;;;;15.80;8.52;;;10.10;99.90;;;;;;4993192;28;20037;-81
2020/12/18 11:52:20;;;;;;;15.45;8.65;;;10.20;99.90;;;;;;4994099;28;20182;-82
2020/12/18 11:54:45;;;;;;;13.55;8.13;;;10.30;99.90;;;;;;4993706;28;20030;-83
2020/12/18 11:57:11;;;;;;;12.50;7.70;;;10.30;99.90;;;;;;4988922;28;20034;-82
2020/12/18 11:59:43;;;;;;;15.73;8.43;;;10.30;99.90;;;;;;4986202;28;20030;-81
2020/12/18 12:02:08;;;;;;;;;;;10.40;99.90;;;;;;4991227;28;20053;-80
2020/12/18 12:04:34;;;;;;;18.02;9.55;;;10.50;99.90;;;;;;4992403;28;20381;-80
2020/12/18 12:06:59;;;;;;;14.60;8.48;;;10.70;99.90;;;;;;4989532;28;20175;-80
2020/12/18 12:09:25;;;;;;;15.52;9.02;;;10.60;99.90;;;;;;4985353;28;20026;-75
2020/12/18 12:11:51;;;;;;;15.63;8.45;;;10.60;99.90;;;;;;4989536;28;20165;-76
2020/12/18 12:14:17;;;;;;;15.85;8.75;;;10.50;99.90;;;;;;4990203;28;20034;-76
2020/12/18 12:16:42;;;;;;;16.38;9.05;;;10.50;99.90;;;;;;4991693;28;20057;-76
2020/12/18 12:19:09;;;;;;;14.88;8.98;;;10.70;99.90;;;;;;4991261;28;20196;-76
2020/12/18 12:21:36;;;;;;;16.63;8.70;;;11.00;99.90;;;;;;4995232;28;20872;-80
2020/12/18 12:24:02;;;;;;;17.17;8.75;;;11.50;99.90;;;;;;4993481;28;20716;-81
2020/12/18 12:26:27;;;;;;;16.60;9.10;;;11.80;99.90;;;;;;4992990;28;20076;-74
2020/12/18 12:28:53;;;;;;;15.02;8.55;;;12.00;99.60;;;;;;4994167;28;20033;-80
2020/12/18 12:31:20;;;;;;;13.98;7.35;;;12.10;98.20;;;;;;4992992;28;20038;-83
2020/12/18 12:33:45;;;;;;;15.25;7.90;;;12.20;98.00;;;;;;4985732;28;20888;-81
2020/12/18 12:36:25;;;;;;;16.67;8.07;;;12.40;97.30;;;;;;4991432;28;20128;-81
2020/12/18 12:38:52;;;;;;;11.63;7.93;;;12.20;96.90;;;;;;4990953;28;20696;-81
2020/12/18 12:41:17;;;;;;;14.23;7.90;;;12.10;97.30;;;;;;4991632;28;20614;-81
2020/12/18 12:43:43;;;;;;;14.52;8.20;;;11.80;97.70;;;;;;4991934;28;20091;-81